Search for airport 
image banner adimage banner adimage banner ad
image banner ad

KCNC - Chariton Muni

Located in Chariton, United States

ICAO - CNC, IATA -

Data provided by Airmate  

General information

Coordinates: N41°1'11" W93°21'35"
Elevation is 1051 feet MSL.
Magnetic variation is 03° East
View others Airports in Iowa

Operational data

Special qualification required
Current time UTC:
Current local time:
Weather
METAR: KCNC 181735Z AUTO 25009KT 10SM SCT028 29/24 A2988 RMK AO2
View NOTAMs / SUP AIP / TFR affecting this airport [VIEW]
Communications frequencies: [VIEW]

Runways:

RWY identifierQFULength (ft)Width (ft)SurfaceLDA (ft)
10102°400075CONC
28282°400075CONC
17180°280075CONC
35280075CONC

Airport contact information

Address: Chariton United States

Satellite view of KCNC